Time;durP1;ratioP1;P1;durP2;ratioP2;P2;SDS_P1;SDS_P2;PMS_P1;PMS_P2;Temp;Humidity;BMP_temperature;BMP_pressure;BME280_temperature;BME280_humidity;BME280_pressure;Samples;Min_cycle;Max_cycle;Signal;HPM_P1;HPM_P2
2022/07/31 00:00:24;;;;;;;2.70;2.40;;;23.80;58.30;;;25.02;38.94;100840.94;5049559;28;20654;-74
2022/07/31 00:02:51;;;;;;;4.70;2.70;;;23.80;58.90;;;24.85;39.95;100838.84;5049632;28;20727;-75
2022/07/31 00:05:18;;;;;;;5.77;3.00;;;23.70;59.10;;;24.91;39.84;100838.03;5050847;28;20663;-75
2022/07/31 00:07:45;;;;;;;2.50;2.40;;;23.70;59.20;;;24.99;39.23;100836.03;5050292;28;21211;-75
2022/07/31 00:10:12;;;;;;;2.63;2.43;;;23.80;59.10;;;24.95;39.47;100837.44;5050634;28;21041;-76
2022/07/31 00:12:39;;;;;;;4.10;2.57;;;23.70;59.20;;;24.87;39.35;100840.28;5050960;28;20755;-72
2022/07/31 00:15:14;;;;;;;2.80;2.60;;;23.70;59.10;;;24.85;39.60;100837.00;5051228;28;20628;-75
2022/07/31 00:17:43;;;;;;;2.60;2.40;;;23.60;59.00;;;24.89;39.67;100837.41;5047701;22;20721;-67
2022/07/31 00:20:15;;;;;;;2.83;2.40;;;23.60;59.30;;;24.83;39.33;100835.53;5032445;28;20619;-67
2022/07/31 00:22:45;;;;;;;6.23;2.93;;;23.60;59.40;;;24.85;40.02;100833.50;5050937;28;20613;-66
2022/07/31 00:25:14;;;;;;;2.60;2.50;;;23.60;59.50;;;24.81;40.04;100834.91;5033275;28;20646;-67
2022/07/31 00:27:41;;;;;;;2.70;2.50;;;23.60;59.30;;;24.80;39.77;100833.25;5035090;28;20672;-67
2022/07/31 00:30:11;;;;;;;7.63;2.70;;;23.60;59.50;;;24.83;39.95;100836.34;5013864;28;20699;-66
2022/07/31 00:32:39;;;;;;;4.17;2.70;;;23.60;59.40;;;24.79;39.90;100834.28;5031987;28;20652;-67
2022/07/31 00:35:07;;;;;;;2.60;2.50;;;23.60;59.50;;;24.82;39.63;100829.38;5012365;28;20609;-67
2022/07/31 00:37:36;;;;;;;2.73;2.53;;;23.60;59.50;;;24.85;39.55;100828.16;5028925;28;20644;-67
2022/07/31 00:40:07;;;;;;;2.67;2.50;;;23.60;59.40;;;24.83;39.66;100819.53;5030634;28;20818;-66
2022/07/31 00:42:34;;;;;;;2.50;2.40;;;23.60;59.60;;;24.87;40.02;100818.09;5030704;28;20644;-66
2022/07/31 00:45:01;;;;;;;5.80;2.97;;;23.60;59.70;;;24.82;40.04;100812.53;5030521;28;20937;-66
2022/07/31 00:47:28;;;;;;;2.60;2.50;;;23.60;59.80;;;24.75;39.94;100817.00;5029682;28;20662;-67
2022/07/31 00:49:55;;;;;;;3.10;2.90;;;23.60;59.90;;;24.78;39.97;100819.28;5030358;28;21038;-66
2022/07/31 00:52:22;;;;;;;6.63;2.70;;;23.60;60.10;;;24.69;40.67;100818.59;5030781;28;20664;-66
2022/07/31 00:54:49;;;;;;;9.60;2.80;;;23.50;60.20;;;24.45;40.95;100821.72;5030831;28;20663;-66
2022/07/31 00:57:16;;;;;;;3.03;2.60;;;23.50;61.40;;;24.48;40.88;100811.50;5028955;28;20756;-67
2022/07/31 00:59:43;;;;;;;4.73;2.70;;;23.40;60.90;;;24.47;41.22;100812.50;5029606;28;20708;-67
2022/07/31 01:02:10;;;;;;;3.60;3.00;;;23.30;61.10;;;24.31;41.72;100807.50;5011549;28;20732;-66
2022/07/31 01:04:37;;;;;;;3.03;2.70;;;23.30;61.70;;;24.30;42.25;100811.16;5029666;28;20946;-66
2022/07/31 01:07:10;;;;;;;3.63;2.70;;;23.20;61.90;;;24.29;42.30;100816.69;5029456;28;20661;-67
2022/07/31 01:09:37;;;;;;;2.90;2.60;;;23.20;62.20;;;24.15;42.32;100814.97;5020909;28;20647;-67
2022/07/31 01:12:32;;;;;;;4.07;2.70;;;23.10;62.40;;;24.07;42.99;100815.91;5012936;28;20623;-65
2022/07/31 01:15:04;;;;;;;7.20;2.73;;;23.00;62.70;;;24.08;42.64;100814.09;5011878;28;20636;-67
2022/07/31 01:17:31;;;;;;;2.73;2.53;;;23.00;62.90;;;23.99;43.04;100823.19;5011434;28;21060;-67
2022/07/31 01:19:58;;;;;;;6.23;2.30;;;22.90;63.10;;;23.98;43.01;100819.69;5011299;28;20632;-67
2022/07/31 01:22:40;;;;;;;2.70;2.50;;;22.90;63.20;;;23.96;42.98;100823.59;5021563;28;20706;-67
2022/07/31 01:25:50;;;;;;;6.70;3.00;;;22.80;63.30;;;23.91;43.46;100818.84;5029532;28;21129;-69
2022/07/31 01:29:02;;;;;;;5.10;2.77;;;22.80;63.50;;;23.81;43.61;100826.31;5028632;28;21029;-67
2022/07/31 01:31:36;;;;;;;2.77;2.60;;;22.70;63.80;;;23.72;43.64;100820.28;4998668;28;20637;-67
2022/07/31 01:34:14;;;;;;;3.10;2.80;;;22.60;64.10;;;23.67;44.16;100817.38;5028285;28;20682;-65
2022/07/31 01:36:48;;;;;;;2.70;2.50;;;22.60;64.50;;;23.62;44.40;100814.47;5026921;28;20656;-67
2022/07/31 01:39:16;;;;;;;5.73;2.93;;;22.60;65.00;;;23.53;44.70;100812.13;5012184;28;21248;-68
2022/07/31 01:41:47;;;;;;;2.87;2.50;;;22.50;65.10;;;23.47;45.00;100810.22;5029730;28;20633;-67
2022/07/31 01:44:17;;;;;;;2.90;2.60;;;22.40;65.50;;;23.39;45.42;100805.81;5013122;28;20627;-67
2022/07/31 01:46:45;;;;;;;2.90;2.70;;;22.30;66.50;;;23.32;45.32;100812.06;5010759;28;21160;-67
2022/07/31 01:49:13;;;;;;;4.43;3.00;;;22.30;66.00;;;23.20;45.77;100800.25;5011349;28;20651;-67
2022/07/31 01:51:43;;;;;;;4.07;2.87;;;22.20;66.40;;;23.26;45.76;100802.16;5011406;28;20632;-67
2022/07/31 01:54:11;;;;;;;2.80;2.60;;;22.20;66.60;;;23.33;45.73;100801.25;5007419;28;20672;-67
2022/07/31 01:56:40;;;;;;;3.93;3.20;;;22.10;66.70;;;23.33;45.67;100801.25;4993471;28;20638;-67
2022/07/31 01:59:09;;;;;;;2.70;2.50;;;22.10;66.90;;;23.27;46.14;100803.81;5012101;28;20627;-66
2022/07/31 02:01:50;;;;;;;3.90;3.17;;;22.20;67.10;;;23.29;46.03;100807.94;5010666;28;21013;-67
2022/07/31 02:04:19;;;;;;;4.90;3.00;;;22.10;67.20;;;23.27;46.01;100809.97;5010705;28;20643;-68
2022/07/31 02:06:48;;;;;;;2.97;2.70;;;22.10;67.30;;;23.27;46.06;100803.81;5029482;28;20735;-67
2022/07/31 02:09:18;;;;;;;3.30;3.00;;;22.10;67.40;;;23.23;46.27;100808.69;5011162;28;20612;-65
2022/07/31 02:11:46;;;;;;;4.03;2.60;;;22.10;67.70;;;23.26;46.16;100804.81;5012116;28;20647;-67
2022/07/31 02:14:21;;;;;;;6.90;2.80;;;22.10;67.70;;;23.25;45.95;100809.34;5029389;28;20664;-67
2022/07/31 02:16:49;;;;;;;3.00;2.80;;;22.10;67.80;;;23.20;46.29;100808.22;4998703;28;20668;-67
2022/07/31 02:19:17;;;;;;;2.70;2.50;;;22.10;67.90;;;23.06;46.78;100810.72;5029145;28;20725;-68
2022/07/31 02:21:44;;;;;;;2.90;2.70;;;22.00;68.20;;;22.99;46.85;100806.34;5012016;28;20716;-67
2022/07/31 02:24:11;;;;;;;2.87;2.60;;;22.00;68.50;;;22.98;47.04;100802.03;5011040;28;20625;-67
2022/07/31 02:26:39;;;;;;;2.70;2.50;;;21.90;68.60;;;22.77;47.43;100792.16;5011910;28;20664;-67
2022/07/31 02:29:10;;;;;;;2.70;2.50;;;21.80;69.00;;;22.83;47.31;100791.41;5028725;28;20644;-67
2022/07/31 02:31:48;;;;;;;2.63;2.53;;;21.80;69.40;;;22.81;47.44;100788.13;5002942;28;20668;-68
2022/07/31 02:34:30;;;;;;;2.80;2.60;;;21.70;69.60;;;22.79;47.68;100794.63;5013240;28;20664;-65
2022/07/31 02:37:00;;;;;;;2.73;2.53;;;21.70;69.90;;;22.84;47.48;100792.25;5014693;28;20633;-67
2022/07/31 02:39:30;;;;;;;2.73;2.53;;;21.70;69.90;;;22.75;47.79;100788.88;4998563;28;20667;-67
2022/07/31 02:41:59;;;;;;;3.13;2.93;;;21.70;70.40;;;22.73;48.22;100790.88;5015027;28;21156;-67
2022/07/31 02:44:30;;;;;;;3.53;3.23;;;21.70;70.80;;;22.80;48.10;100786.47;5032205;28;20661;-67
2022/07/31 02:47:01;;;;;;;5.00;3.33;;;21.70;71.00;;;22.82;47.94;100788.94;5008417;28;20988;-67
2022/07/31 02:49:29;;;;;;;2.80;2.60;;;21.70;71.00;;;22.89;47.86;100787.19;5026941;28;20633;-68
2022/07/31 02:51:57;;;;;;;3.97;2.90;;;21.70;71.10;;;22.91;47.66;100782.53;5013817;28;20643;-66
2022/07/31 02:54:25;;;;;;;2.90;2.70;;;21.70;71.10;;;22.92;47.73;100777.00;5032141;28;21028;-65
2022/07/31 02:56:52;;;;;;;3.00;2.80;;;21.70;71.20;;;22.98;47.71;100778.91;5031776;28;20637;-64
2022/07/31 02:59:21;;;;;;;5.10;2.90;;;21.80;71.40;;;22.90;47.93;100768.38;5014937;28;20601;-68
2022/07/31 03:01:48;;;;;;;4.60;2.97;;;21.80;71.60;;;22.89;48.02;100768.56;5030970;28;20674;-66
2022/07/31 03:04:15;;;;;;;4.23;2.80;;;21.80;71.90;;;22.89;48.05;100765.91;5031671;28;21180;-68
2022/07/31 03:06:42;;;;;;;2.67;2.47;;;21.70;72.10;;;22.81;48.42;100772.16;5032370;28;20633;-66
2022/07/31 03:09:09;;;;;;;3.63;3.30;;;21.70;72.20;;;22.81;48.54;100761.50;5031910;28;20619;-67
2022/07/31 03:11:36;;;;;;;4.07;2.80;;;21.70;72.50;;;22.80;48.31;100757.22;5015331;28;20608;-67
2022/07/31 03:14:04;;;;;;;2.87;2.60;;;21.70;72.80;;;22.77;48.50;100765.56;5014714;28;20660;-64
2022/07/31 03:16:33;;;;;;;19.73;3.43;;;21.70;73.10;;;22.73;48.66;100766.94;5013930;28;20660;-67
2022/07/31 03:19:02;;;;;;;3.00;2.80;;;21.60;73.30;;;22.65;49.05;100761.72;5014227;28;20608;-67
2022/07/31 03:21:30;;;;;;;3.43;3.13;;;21.60;74.30;;;22.64;49.29;100765.38;5028063;28;20640;-66
2022/07/31 03:23:59;;;;;;;6.73;2.80;;;21.50;74.10;;;22.56;49.34;100772.59;5031917;28;20657;-69
2022/07/31 03:26:29;;;;;;;4.27;2.97;;;21.50;74.40;;;22.58;49.43;100771.41;5011516;28;21014;-67
2022/07/31 03:28:59;;;;;;;3.57;3.10;;;21.50;74.90;;;22.57;49.56;100774.28;5014172;28;20640;-67
2022/07/31 03:31:26;;;;;;;4.93;2.70;;;21.40;75.30;;;22.62;49.40;100778.03;5029000;28;20989;-67
2022/07/31 03:33:53;;;;;;;3.63;2.80;;;21.40;75.60;;;22.66;49.51;100773.19;5015212;28;20656;-68
2022/07/31 03:36:21;;;;;;;4.00;3.00;;;21.50;76.00;;;22.63;49.51;100782.38;5032231;28;20641;-67
2022/07/31 03:38:48;;;;;;;4.87;3.27;;;21.50;76.40;;;22.68;49.70;100776.50;5002830;28;20655;-67
2022/07/31 03:41:16;;;;;;;3.17;2.90;;;21.50;76.80;;;22.61;50.44;100772.91;5014327;28;20975;-67
2022/07/31 03:43:45;;;;;;;3.83;2.87;;;21.50;77.80;;;22.57;50.84;100780.41;5027796;28;21003;-67
2022/07/31 03:46:20;;;;;;;7.03;2.90;;;21.40;78.80;;;22.59;50.98;100783.75;5009968;28;20657;-67
2022/07/31 03:48:50;;;;;;;4.63;2.97;;;21.40;79.30;;;22.58;50.87;100775.91;4997241;28;20709;-68
2022/07/31 03:51:18;;;;;;;3.47;3.17;;;21.40;79.70;;;22.61;50.89;100781.72;5013364;28;20679;-67
2022/07/31 03:53:47;;;;;;;3.30;3.00;;;21.40;79.70;;;22.64;50.47;100784.00;5013098;28;20736;-65
2022/07/31 03:56:16;;;;;;;4.37;3.40;;;21.40;80.20;;;22.60;50.65;100779.22;5026111;28;20642;-67
2022/07/31 03:58:43;;;;;;;6.37;3.03;;;21.40;79.60;;;22.62;50.41;100783.38;5033695;28;20620;-67
2022/07/31 04:01:19;;;;;;;6.07;3.80;;;21.50;79.60;;;22.69;50.37;100781.63;5031190;28;20694;-68
2022/07/31 04:03:47;;;;;;;4.37;3.57;;;21.50;79.70;;;22.74;49.63;100783.75;5014002;28;20629;-67
2022/07/31 04:06:14;;;;;;;4.20;3.10;;;21.60;78.80;;;22.82;49.08;100784.47;5013213;28;20691;-69
2022/07/31 04:08:41;;;;;;;2.80;2.60;;;21.70;78.20;;;22.82;50.05;100784.47;5032005;28;21497;-67
2022/07/31 04:11:08;;;;;;;3.43;3.10;;;21.70;79.10;;;22.74;50.08;100784.56;5030696;28;20623;-67
2022/07/31 04:13:36;;;;;;;2.80;2.40;;;21.70;79.40;;;22.62;50.13;100778.03;5031048;28;20741;-67
2022/07/31 04:16:03;;;;;;;2.73;2.50;;;21.60;79.40;;;22.58;50.78;100784.72;5030490;28;20621;-67
2022/07/31 04:18:33;;;;;;;3.57;2.70;;;21.50;80.10;;;22.61;50.65;100786.22;5029313;28;21214;-66
2022/07/31 04:21:00;;;;;;;3.30;2.30;;;21.60;80.30;;;22.57;51.08;100787.56;5031270;28;21121;-65
2022/07/31 04:23:27;;;;;;;3.63;2.97;;;21.50;80.80;;;22.38;51.37;100781.78;5030156;28;20643;-68
2022/07/31 04:25:58;;;;;;;3.50;2.90;;;21.50;81.10;;;22.25;51.60;100784.22;5031216;28;20628;-67
2022/07/31 04:28:25;;;;;;;5.47;2.80;;;21.30;81.80;;;22.26;51.64;100788.56;5031325;28;20629;-66
2022/07/31 04:30:52;;;;;;;3.97;2.73;;;21.30;82.10;;;22.22;51.73;100791.75;5031362;28;20721;-66
2022/07/31 04:33:19;;;;;;;4.20;3.20;;;21.30;82.10;;;22.23;51.57;100788.09;5046698;28;20660;-67
2022/07/31 04:35:46;;;;;;;3.30;3.00;;;21.30;82.20;;;22.10;51.80;100783.41;5050703;28;20723;-68
2022/07/31 04:38:15;;;;;;;3.50;2.80;;;21.20;82.40;;;22.05;52.14;100785.78;5015064;28;20664;-67
2022/07/31 04:40:42;;;;;;;2.90;2.70;;;21.10;82.50;;;22.21;51.07;100795.44;5030577;28;20623;-66
2022/07/31 04:43:09;;;;;;;3.27;2.97;;;21.20;82.10;;;22.22;50.48;100794.41;5012320;28;21013;-67
2022/07/31 04:45:36;;;;;;;6.40;3.23;;;21.20;81.30;;;22.30;50.22;100787.19;5030836;28;21230;-66
2022/07/31 04:48:04;;;;;;;6.50;2.80;;;21.30;81.10;;;22.29;50.20;100793.53;5029460;28;20661;-68
2022/07/31 04:50:31;;;;;;;3.00;2.80;;;21.30;81.00;;;22.37;49.76;100797.91;5030312;28;20616;-67
2022/07/31 04:52:58;;;;;;;3.30;3.00;;;21.40;80.60;;;22.46;49.81;100793.34;5029475;28;20640;-68
2022/07/31 04:55:25;;;;;;;3.10;2.90;;;21.40;81.30;;;22.53;50.36;100792.41;5028878;28;20724;-67
2022/07/31 04:57:52;;;;;;;3.43;3.13;;;21.40;81.30;;;22.58;49.84;100795.34;5030245;28;20643;-67
2022/07/31 05:00:19;;;;;;;3.50;3.20;;;21.50;80.90;;;22.54;49.55;100793.25;5028419;28;20731;-67
2022/07/31 05:02:46;;;;;;;7.27;3.23;;;21.50;80.50;;;22.66;49.44;100797.94;5030161;28;20617;-67
2022/07/31 05:05:13;;;;;;;3.13;2.93;;;21.60;80.30;;;22.73;49.25;100798.03;5024265;28;20665;-66
2022/07/31 05:07:40;;;;;;;2.80;2.60;;;21.70;80.10;;;22.88;48.77;100794.34;5029742;28;20671;-67
2022/07/31 05:10:07;;;;;;;4.70;3.17;;;21.70;79.60;;;22.80;48.87;100791.81;5029887;28;20956;-67
2022/07/31 05:12:34;;;;;;;5.63;2.87;;;21.80;79.40;;;22.68;49.02;100795.13;5029230;28;20635;-67
2022/07/31 05:15:01;;;;;;;3.00;2.80;;;21.70;79.40;;;22.46;49.75;100793.34;5012726;28;21034;-67
2022/07/31 05:17:28;;;;;;;6.47;3.17;;;21.50;79.80;;;22.33;50.16;100799.28;5028717;28;21314;-68
2022/07/31 05:19:55;;;;;;;21.73;2.90;;;21.50;80.30;;;22.49;49.71;100799.09;5011315;28;20624;-68
2022/07/31 05:22:22;;;;;;;3.10;2.80;;;21.40;80.60;;;22.38;50.38;100795.06;5027986;28;21234;-68
2022/07/31 05:24:49;;;;;;;4.67;3.17;;;21.40;81.40;;;22.57;50.05;100800.88;5013027;28;20691;-67
2022/07/31 05:27:16;;;;;;;5.80;2.80;;;21.50;81.50;;;22.74;49.72;100800.53;5026262;28;20687;-66
2022/07/31 05:29:43;;;;;;;3.47;3.10;;;21.60;81.20;;;22.68;49.49;100798.59;5030467;28;20696;-67
2022/07/31 05:32:10;;;;;;;3.13;2.93;;;21.60;80.70;;;22.68;49.51;100806.56;5032436;28;20632;-65
2022/07/31 05:34:38;;;;;;;6.13;3.20;;;21.70;80.70;;;22.67;49.80;100807.59;5028940;28;20661;-66
2022/07/31 05:37:05;;;;;;;3.70;3.40;;;21.70;81.00;;;22.70;49.85;100801.88;5029923;28;20641;-66
2022/07/31 05:39:32;;;;;;;3.20;3.00;;;21.70;81.20;;;22.94;49.29;100809.56;5029589;28;20633;-66
2022/07/31 05:41:59;;;;;;;3.13;2.80;;;21.80;81.20;;;23.05;49.25;100809.09;5013185;28;20608;-67
2022/07/31 05:44:26;;;;;;;7.13;3.20;;;21.90;81.10;;;23.14;49.04;100810.66;5028246;28;20645;-65
2022/07/31 05:46:53;;;;;;;3.73;3.43;;;21.90;80.80;;;23.19;48.94;100812.75;5029837;28;21239;-64
2022/07/31 05:49:19;;;;;;;5.83;3.07;;;22.00;80.80;;;23.13;49.10;100802.84;5029951;28;20708;-67
2022/07/31 05:51:46;;;;;;;3.30;3.00;;;22.00;80.80;;;23.06;49.41;100801.94;5011579;28;20700;-66
2022/07/31 05:54:13;;;;;;;6.50;2.90;;;22.00;80.90;;;23.10;49.28;100798.72;5011543;28;20661;-68
2022/07/31 05:56:40;;;;;;;4.93;3.43;;;22.00;81.10;;;23.02;49.51;100790.84;5029754;28;21021;-68
2022/07/31 05:59:08;;;;;;;3.30;2.93;;;22.00;81.00;;;22.78;49.80;100796.47;5028471;28;20633;-66
2022/07/31 06:01:35;;;;;;;3.90;2.90;;;21.90;81.00;;;22.75;49.55;100794.19;5029753;28;20625;-67
2022/07/31 06:04:02;;;;;;;3.70;3.40;;;21.80;80.60;;;22.96;49.20;100798.72;5010146;28;20641;-64
2022/07/31 06:06:29;;;;;;;3.50;3.20;;;21.90;80.60;;;22.73;49.87;100793.53;4995158;28;20752;-66
2022/07/31 06:08:56;;;;;;;3.60;3.30;;;21.90;80.70;;;22.86;49.92;100792.88;5027824;28;20619;-64
2022/07/31 06:11:30;;;;;;;3.77;3.37;;;21.90;81.40;;;22.88;50.09;100796.19;5032374;28;20633;-67
2022/07/31 06:13:57;;;;;;;4.00;3.10;;;21.90;81.80;;;23.19;49.35;100790.63;5033703;28;20663;-68
2022/07/31 06:16:24;;;;;;;4.33;3.57;;;22.00;81.70;;;23.07;49.41;100791.09;5016065;28;20759;-66
2022/07/31 06:18:51;;;;;;;3.50;3.20;;;22.00;81.30;;;23.10;49.56;100788.09;5033408;28;20645;-67
2022/07/31 06:21:18;;;;;;;3.47;3.20;;;22.00;82.30;;;23.44;48.77;100799.94;5032972;28;21248;-67
2022/07/31 06:23:44;;;;;;;3.77;3.47;;;22.20;81.20;;;23.50;48.36;100801.84;4999662;28;20700;-67
2022/07/31 06:26:11;;;;;;;3.77;3.47;;;22.40;80.50;;;23.73;48.00;100810.47;5032450;28;21307;-67
2022/07/31 06:28:38;;;;;;;3.33;3.03;;;22.50;80.00;;;23.88;47.26;100813.88;5033389;28;20624;-67
2022/07/31 06:31:20;;;;;;;3.70;3.10;;;22.70;79.40;;;24.17;46.75;100803.06;5032777;28;20671;-67
2022/07/31 06:33:48;;;;;;;3.40;3.20;;;22.90;78.60;;;24.03;46.34;100811.97;5015394;28;20684;-67
2022/07/31 06:36:17;;;;;;;3.10;2.87;;;22.90;77.40;;;24.07;46.46;100810.59;5014873;28;20691;-67
2022/07/31 06:38:45;;;;;;;4.80;3.17;;;22.90;77.60;;;24.22;46.04;100810.47;5032819;28;20716;-67
2022/07/31 06:43:58;;;;;;;6.70;3.13;;;23.10;76.90;;;24.79;44.52;100820.94;5031770;28;20613;-67
2022/07/31 06:46:25;;;;;;;3.10;2.90;;;23.40;76.00;;;24.93;44.42;100822.66;5030170;28;20692;-65
2022/07/31 06:48:52;;;;;;;2.77;2.67;;;23.50;75.60;;;25.13;44.72;100826.22;5030999;28;20616;-68
2022/07/31 06:51:20;;;;;;;4.80;3.33;;;23.70;75.70;;;25.79;43.50;100822.69;5032823;28;20667;-67
2022/07/31 06:53:58;;;;;;;3.27;2.93;;;24.10;74.80;;;26.40;42.08;100819.84;5033065;28;20656;-67
2022/07/31 06:56:25;;;;;;;3.70;3.40;;;24.60;73.70;;;26.82;41.38;100830.06;5015062;28;21283;-65
2022/07/31 06:58:52;;;;;;;3.80;3.50;;;25.00;72.70;;;27.09;40.50;100823.56;5032519;28;20604;-66
2022/07/31 07:01:19;;;;;;;3.67;3.40;;;25.20;71.70;;;27.08;39.96;100823.78;5031844;28;20620;-68
2022/07/31 07:03:46;;;;;;;3.17;2.97;;;25.30;70.60;;;26.74;40.35;100814.22;5013993;28;20669;-67
2022/07/31 07:06:14;;;;;;;7.13;3.10;;;25.30;69.90;;;27.16;39.96;100821.66;5013753;28;20656;-65
2022/07/31 07:08:41;;;;;;;4.23;3.00;;;25.50;69.60;;;27.13;39.50;100819.41;5030967;28;21043;-67
2022/07/31 07:11:08;;;;;;;3.67;3.30;;;25.50;68.80;;;27.41;39.16;100819.91;5031658;28;20663;-67
2022/07/31 07:13:39;;;;;;;2.90;2.70;;;25.70;68.50;;;27.86;38.22;100819.81;5031911;28;21266;-68
2022/07/31 07:16:13;;;;;;;2.70;2.50;;;26.00;67.80;;;27.89;38.38;100819.38;5014947;28;20707;-65
2022/07/31 07:18:41;;;;;;;3.07;2.87;;;26.10;67.10;;;28.63;36.81;100814.81;5015306;28;20686;-66
2022/07/31 07:21:10;;;;;;;3.73;3.43;;;26.50;66.30;;;28.88;36.29;100803.97;5013680;28;20633;-67
2022/07/31 07:23:37;;;;;;;3.27;3.07;;;26.70;65.60;;;30.28;34.22;100817.66;5013485;28;20671;-68
2022/07/31 07:26:04;;;;;;;2.90;2.70;;;27.50;64.70;;;33.30;29.51;100819.38;5030504;28;20642;-67
2022/07/31 07:28:32;;;;;;;3.50;3.20;;;29.10;62.40;;;35.97;26.17;100823.56;5031124;28;20655;-66
2022/07/31 07:31:00;;;;;;;3.47;3.17;;;30.80;59.40;;;37.39;24.30;100816.56;5014553;28;20624;-68
2022/07/31 07:33:27;;;;;;;3.00;2.90;;;32.40;55.90;;;37.58;23.75;100821.06;5030955;28;21263;-68
2022/07/31 07:36:09;;;;;;;3.23;2.97;;;33.00;53.80;;;39.50;21.55;100822.44;5031892;28;20974;-65
2022/07/31 07:38:53;;;;;;;4.63;3.50;;;34.30;51.80;;;40.16;20.36;100822.19;5032427;28;20629;-66
2022/07/31 07:41:23;;;;;;;4.53;3.47;;;35.50;49.40;;;41.77;18.94;100815.97;5014335;28;20652;-68
2022/07/31 07:43:51;;;;;;;3.70;3.40;;;36.40;47.90;;;41.34;18.76;100812.09;5031619;28;20695;-66
2022/07/31 07:46:23;;;;;;;3.20;3.00;;;36.40;46.80;;;40.47;19.87;100804.09;5013081;28;20697;-67
2022/07/31 07:48:51;;;;;;;3.30;2.87;;;36.10;46.20;;;42.14;17.77;100798.28;5014034;28;20716;-65
2022/07/31 07:51:19;;;;;;;3.33;3.13;;;36.80;45.90;;;42.85;17.71;100799.81;5013588;28;20617;-63
2022/07/31 07:53:46;;;;;;;4.80;3.10;;;37.30;45.50;;;43.26;17.16;100796.66;5030113;28;20675;-65
2022/07/31 07:56:13;;;;;;;3.17;3.00;;;37.80;44.80;;;41.55;18.92;100792.09;5032598;28;20643;-65
2022/07/31 07:58:40;;;;;;;3.03;2.80;;;37.20;44.20;;;43.27;17.09;100787.28;5030557;28;20637;-67
2022/07/31 08:01:07;;;;;;;2.83;2.70;;;37.60;44.50;;;42.39;16.95;100789.34;5031650;28;20609;-66
2022/07/31 08:03:35;;;;;;;2.83;2.73;;;37.20;43.00;;;42.17;16.93;100786.72;5030731;28;21214;-67
2022/07/31 08:06:22;;;;;;;2.90;2.80;;;37.10;43.00;;;41.96;17.55;100794.63;5028975;28;20661;-65
2022/07/31 08:08:49;;;;;;;3.43;3.13;;;37.50;42.50;;;42.43;17.26;100782.91;5022035;28;20635;-66
2022/07/31 08:11:16;;;;;;;2.30;2.10;;;37.60;42.80;;;43.05;16.55;100786.28;5031333;28;20662;-65
2022/07/31 08:13:45;;;;;;;2.80;2.70;;;38.00;42.20;;;41.46;17.58;100774.00;5030566;28;20661;-66
2022/07/31 08:16:19;;;;;;;3.00;2.83;;;37.60;41.80;;;39.16;19.24;100775.47;5014387;28;21059;-66
2022/07/31 08:18:47;;;;;;;2.60;2.50;;;36.20;42.00;;;38.08;19.91;100765.31;5012627;28;20728;-64
2022/07/31 08:21:15;;;;;;;2.50;2.40;;;35.60;42.70;;;37.28;21.11;100764.91;5030826;28;21053;-64
2022/07/31 08:23:42;;;;;;;3.10;2.87;;;34.90;44.00;;;37.88;21.39;100766.38;5029741;28;20645;-66
2022/07/31 08:26:09;;;;;;;2.80;2.70;;;34.70;44.70;;;39.29;18.96;100767.34;5030631;28;20624;-67
2022/07/31 08:28:37;;;;;;;2.67;2.50;;;35.20;43.60;;;39.60;19.10;100764.13;5027428;28;21208;-64
2022/07/31 08:31:04;;;;;;;2.87;2.67;;;35.50;43.50;;;39.58;19.50;100767.19;5030899;28;21264;-64
2022/07/31 08:33:34;;;;;;;2.83;2.70;;;35.60;43.60;;;38.94;19.84;100765.13;5030667;28;20716;-66
2022/07/31 08:36:03;;;;;;;2.97;2.83;;;35.60;43.90;;;37.09;21.58;100755.78;5030473;28;20661;-66
2022/07/31 08:38:30;;;;;;;3.03;2.83;;;34.60;44.10;;;35.71;23.29;100760.28;5030753;28;20631;-66
2022/07/31 08:40:57;;;;;;;3.67;3.33;;;33.80;45.10;;;33.33;25.71;100748.56;5029579;28;20635;-66
2022/07/31 08:43:24;;;;;;;3.00;2.80;;;32.50;46.30;;;33.11;25.97;100740.50;5029438;28;20647;-67
2022/07/31 08:46:12;;;;;;;2.67;2.47;;;31.70;47.30;;;31.69;28.06;100746.94;5025058;28;20617;-65
2022/07/31 08:48:41;;;;;;;2.70;2.50;;;30.70;48.20;;;31.55;28.62;100740.22;5029562;28;20731;-66
2022/07/31 08:51:12;;;;;;;2.70;2.60;;;30.30;48.90;;;31.47;28.76;100744.13;4997298;28;20711;-67
2022/07/31 08:53:41;;;;;;;3.10;2.90;;;30.00;49.70;;;31.58;28.53;100751.34;5029409;28;20667;-66
2022/07/31 08:56:09;;;;;;;2.93;2.53;;;30.00;49.80;;;30.97;30.03;100749.41;5012489;28;20661;-64
2022/07/31 08:58:36;;;;;;;3.40;3.10;;;29.60;50.50;;;30.55;30.55;100738.03;5012301;28;20656;-64
2022/07/31 09:01:07;;;;;;;7.63;3.60;;;29.30;51.00;;;30.45;30.77;100734.31;5031055;28;20997;-66
2022/07/31 09:03:35;;;;;;;4.53;2.47;;;29.10;51.60;;;30.33;31.45;100731.66;5012156;28;20673;-66
2022/07/31 09:06:04;;;;;;;9.20;3.10;;;28.90;52.10;;;29.80;32.32;100736.31;5031007;28;20659;-65
2022/07/31 09:08:35;;;;;;;5.50;3.40;;;28.50;53.00;;;30.56;31.01;100730.78;5012619;28;21203;-64
2022/07/31 09:11:09;;;;;;;3.40;2.40;;;28.80;53.00;;;32.11;29.24;100732.72;5012001;28;20633;-66
2022/07/31 09:13:37;;;;;;;2.20;2.10;;;29.40;52.70;;;35.02;25.50;100746.38;5030388;28;21274;-65
2022/07/31 09:16:04;;;;;;;2.67;2.57;;;31.20;50.50;;;37.11;22.86;100736.47;5029759;28;20783;-66
2022/07/31 09:18:32;;;;;;;2.93;2.73;;;32.60;49.10;;;37.03;23.04;100737.88;5021117;28;20660;-66
2022/07/31 09:21:05;;;;;;;4.27;2.90;;;33.20;47.90;;;35.10;25.24;100735.81;5025883;28;20636;-65
2022/07/31 09:23:32;;;;;;;3.30;3.10;;;32.90;47.80;;;34.44;26.40;100727.69;5012931;28;21186;-65
2022/07/31 09:26:04;;;;;;;3.00;2.70;;;32.40;48.70;;;33.71;27.37;100726.72;5029948;28;20640;-63
2022/07/31 09:28:34;;;;;;;5.60;2.90;;;31.90;49.20;;;34.05;27.21;100730.75;5029793;28;20656;-64
2022/07/31 09:31:03;;;;;;;2.70;2.60;;;31.70;49.70;;;35.28;25.30;100718.19;5029859;28;20708;-66
2022/07/31 09:33:31;;;;;;;3.00;2.80;;;32.20;49.30;;;35.79;24.79;100729.88;5046625;28;20646;-65
2022/07/31 09:35:59;;;;;;;4.90;3.10;;;32.80;48.80;;;34.96;25.72;100726.53;5032313;28;20685;-64
2022/07/31 09:38:36;;;;;;;2.90;2.70;;;32.50;49.00;;;33.95;26.92;100719.00;5024112;28;20921;-65
2022/07/31 09:41:15;;;;;;;3.10;2.90;;;32.10;49.50;;;33.21;28.28;100718.13;5031002;28;20624;-63
2022/07/31 09:44:04;;;;;;;3.50;2.77;;;31.60;50.10;;;33.17;28.00;100712.44;5011507;28;20602;-66
2022/07/31 09:46:45;;;;;;;3.03;2.80;;;31.20;50.60;;;34.20;26.84;100711.06;5014187;28;20642;-65
2022/07/31 09:49:13;;;;;;;3.87;3.00;;;31.80;50.10;;;34.14;27.50;100701.25;5032954;28;21022;-66
2022/07/31 09:51:44;;;;;;;3.93;3.30;;;31.90;50.00;;;34.33;26.97;100713.31;5033571;28;20669;-66
2022/07/31 09:54:26;;;;;;;4.00;3.20;;;32.10;49.70;;;33.85;27.23;100697.28;5033697;28;20619;-66
2022/07/31 09:56:53;;;;;;;3.60;2.67;;;32.00;49.70;;;33.34;28.27;100699.59;5033216;28;20687;-67
2022/07/31 09:59:20;;;;;;;3.40;3.20;;;31.60;50.00;;;33.35;28.53;100697.72;5033537;28;20712;-66
2022/07/31 10:01:48;;;;;;;3.40;2.90;;;31.50;50.60;;;35.90;25.16;100701.63;5033810;28;20623;-67
2022/07/31 10:04:20;;;;;;;2.97;2.73;;;32.40;50.00;;;36.28;24.43;100705.59;5015733;28;20716;-65
2022/07/31 10:06:50;;;;;;;3.17;2.90;;;33.10;48.80;;;35.93;25.19;100700.25;5016329;28;20659;-67
2022/07/31 10:09:20;;;;;;;3.83;3.13;;;33.10;48.70;;;34.91;26.22;100699.41;5030805;28;21103;-66
2022/07/31 10:11:49;;;;;;;3.17;2.97;;;32.70;49.80;;;34.28;26.90;100697.00;5015021;28;21200;-65
2022/07/31 10:14:30;;;;;;;3.00;2.80;;;32.40;49.40;;;33.01;28.68;100686.31;5014979;28;20635;-65
2022/07/31 10:17:00;;;;;;;5.83;2.93;;;31.80;50.50;;;32.46;29.71;100688.38;5032095;28;21293;-67
2022/07/31 10:19:36;;;;;;;3.57;3.37;;;31.10;51.30;;;31.52;31.46;100678.69;5033091;28;20672;-67
2022/07/31 10:22:04;;;;;;;3.20;3.00;;;30.50;52.20;;;31.55;31.89;100676.31;5015392;28;20615;-67
2022/07/31 10:24:37;;;;;;;3.30;3.10;;;30.40;53.10;;;32.13;30.76;100673.13;5032650;28;21279;-64